Time;durP1;ratioP1;P1;durP2;ratioP2;P2;SDS_P1;SDS_P2;PMS_P1;PMS_P2;Temp;Humidity;BMP_temperature;BMP_pressure;BME280_temperature;BME280_humidity;BME280_pressure;Samples;Min_cycle;Max_cycle;Signal;HPM_P1;HPM_P2
2022/06/05 00:00:06;;;;;;;15.05;9.85;;;11.70;99.90;;;;;;4985251;28;20045;-78
2022/06/05 00:02:38;;;;;;;14.38;10.20;;;11.70;99.90;;;;;;4984762;28;20514;-77
2022/06/05 00:05:25;;;;;;;18.52;10.50;;;11.70;99.90;;;;;;4984504;28;20053;-78
2022/06/05 00:08:12;;;;;;;14.15;9.55;;;11.70;99.90;;;;;;4985353;28;20489;-77
2022/06/05 00:11:08;;;;;;;16.10;9.63;;;11.60;99.90;;;;;;4983512;28;20394;-77
2022/06/05 00:13:44;;;;;;;18.27;10.77;;;11.60;99.90;;;;;;4963000;28;20042;-77
2022/06/05 00:16:12;;;;;;;14.82;9.75;;;11.60;99.90;;;;;;4990855;28;20152;-77
2022/06/05 00:18:39;;;;;;;14.25;10.23;;;11.50;99.90;;;;;;4989581;28;20048;-78
2022/06/05 00:21:08;;;;;;;17.95;10.10;;;11.50;99.90;;;;;;4989777;28;20071;-77
2022/06/05 00:23:34;;;;;;;17.63;10.68;;;11.50;99.90;;;;;;4956810;28;20042;-77
2022/06/05 00:26:27;;;;;;;15.15;10.48;;;11.40;99.90;;;;;;4958777;28;20096;-77
2022/06/05 00:29:01;;;;;;;;;;;11.40;99.90;;;;;;4973244;28;20101;-77
2022/06/05 00:31:36;;;;;;;15.32;10.52;;;11.40;99.90;;;;;;4990821;28;19951;-77
2022/06/05 00:34:02;;;;;;;17.73;11.10;;;11.40;99.90;;;;;;4988308;28;20038;-77
2022/06/05 00:36:54;;;;;;;16.20;10.95;;;11.30;99.90;;;;;;4954588;28;20376;-76
2022/06/05 00:39:32;;;;;;;21.08;11.15;;;11.30;99.90;;;;;;4973785;28;20321;-77
2022/06/05 00:42:10;;;;;;;18.60;11.02;;;11.30;99.90;;;;;;4988211;28;20053;-77
2022/06/05 00:44:42;;;;;;;17.00;11.63;;;11.30;99.90;;;;;;4972033;28;20037;-77
2022/06/05 00:47:13;;;;;;;18.92;12.05;;;11.30;99.90;;;;;;4988383;28;20444;-77
2022/06/05 00:50:01;;;;;;;19.52;12.07;;;11.30;99.90;;;;;;4973613;28;20040;-77
2022/06/05 00:52:30;;;;;;;17.77;10.95;;;11.30;99.90;;;;;;4987292;28;20054;-77
2022/06/05 00:54:56;;;;;;;16.25;11.45;;;11.30;99.90;;;;;;4988738;28;20080;-77
2022/06/05 00:57:28;;;;;;;15.38;10.57;;;11.30;99.90;;;;;;4987301;28;20062;-77
2022/06/05 00:59:54;;;;;;;19.17;11.73;;;11.30;99.90;;;;;;4973943;28;20042;-77
2022/06/05 01:02:21;;;;;;;21.13;11.00;;;11.30;99.90;;;;;;4988672;28;20513;-76
2022/06/05 01:04:49;;;;;;;17.70;11.98;;;11.30;99.90;;;;;;4955867;28;20048;-76
2022/06/05 01:07:16;;;;;;;20.73;12.82;;;11.30;99.90;;;;;;4982730;28;20056;-77
2022/06/05 01:09:45;;;;;;;17.83;12.07;;;11.20;99.90;;;;;;4969996;28;20068;-77
2022/06/05 01:12:20;;;;;;;17.98;12.07;;;11.20;99.90;;;;;;4989320;28;20043;-77
2022/06/05 01:15:11;;;;;;;18.10;12.43;;;11.20;99.90;;;;;;4969507;28;20427;-77
2022/06/05 01:18:00;;;;;;;19.55;11.50;;;11.20;99.90;;;;;;4985301;28;20037;-77
2022/06/05 01:20:41;;;;;;;20.80;12.38;;;11.20;99.90;;;;;;4971897;28;20061;-77
2022/06/05 01:23:13;;;;;;;18.45;12.02;;;11.20;99.90;;;;;;4988549;28;20038;-77
2022/06/05 01:25:41;;;;;;;23.08;12.50;;;11.20;99.90;;;;;;4988204;28;20331;-78
2022/06/05 01:28:11;;;;;;;21.15;12.40;;;11.20;99.90;;;;;;4987422;28;20049;-77
2022/06/05 01:31:14;;;;;;;21.73;13.80;;;11.20;99.90;;;;;;4989157;28;20044;-76
2022/06/05 01:34:00;;;;;;;20.13;12.98;;;11.20;99.90;;;;;;4942271;28;20522;-77
2022/06/05 01:36:40;;;;;;;18.42;11.70;;;11.20;99.90;;;;;;4970614;28;20034;-77
2022/06/05 01:39:21;;;;;;;23.38;12.70;;;11.20;99.90;;;;;;4972609;28;20534;-77
2022/06/05 01:41:50;;;;;;;21.35;12.45;;;11.20;99.90;;;;;;4971704;28;20053;-77
2022/06/05 01:44:21;;;;;;;21.00;12.27;;;11.20;99.90;;;;;;4988873;28;20050;-77
2022/06/05 01:46:49;;;;;;;20.92;12.55;;;11.10;99.90;;;;;;4987662;28;20041;-77
2022/06/05 01:49:32;;;;;;;26.25;13.45;;;11.10;99.90;;;;;;4988401;28;20044;-77
2022/06/05 01:52:18;;;;;;;22.40;13.43;;;11.10;99.90;;;;;;4984493;28;20370;-77
2022/06/05 01:55:06;;;;;;;21.30;11.88;;;11.00;99.90;;;;;;4971444;28;20426;-77
2022/06/05 01:57:34;;;;;;;22.17;12.25;;;11.00;99.90;;;;;;4986773;28;20033;-77
2022/06/05 02:00:19;;;;;;;21.38;12.70;;;11.00;99.90;;;;;;4972956;28;20034;-77
2022/06/05 02:02:55;;;;;;;19.77;13.93;;;11.00;99.90;;;;;;4987943;28;20047;-77
2022/06/05 02:05:27;;;;;;;19.00;12.07;;;11.00;99.90;;;;;;4989318;28;20057;-77
2022/06/05 02:07:57;;;;;;;24.02;13.80;;;11.00;99.90;;;;;;4985264;28;20080;-77
2022/06/05 02:10:42;;;;;;;21.85;13.43;;;11.00;99.90;;;;;;4990897;28;20049;-77
2022/06/05 02:13:07;;;;;;;18.83;13.48;;;11.00;99.90;;;;;;4971794;28;20104;-77
2022/06/05 02:15:33;;;;;;;22.77;13.13;;;11.00;99.90;;;;;;4957667;28;20538;-77
2022/06/05 02:18:00;;;;;;;25.60;14.10;;;11.00;99.90;;;;;;4972826;28;20037;-76
2022/06/05 02:20:27;;;;;;;21.13;13.30;;;10.90;99.90;;;;;;4970128;28;20033;-76
2022/06/05 02:22:54;;;;;;;19.95;12.95;;;10.90;99.90;;;;;;4971723;28;20077;-77
2022/06/05 02:25:25;;;;;;;22.92;13.48;;;10.90;99.90;;;;;;4972696;28;20566;-77
2022/06/05 02:27:57;;;;;;;21.60;13.25;;;10.90;99.90;;;;;;4987262;28;20050;-77
2022/06/05 02:30:24;;;;;;;28.20;14.32;;;10.90;99.90;;;;;;4990047;28;20042;-77
2022/06/05 02:33:13;;;;;;;24.27;13.32;;;10.90;99.90;;;;;;4954808;28;20364;-77
2022/06/05 02:36:04;;;;;;;21.70;12.68;;;10.90;99.90;;;;;;4985151;28;20113;-77
2022/06/05 02:38:43;;;;;;;26.20;13.77;;;10.90;99.90;;;;;;4987224;28;20084;-76
2022/06/05 02:41:12;;;;;;;22.38;13.10;;;10.90;99.90;;;;;;4986846;28;20058;-77
2022/06/05 02:47:33;;;;;;;25.52;13.38;;;10.90;99.90;;;;;;4985329;28;20312;-77
2022/06/05 02:50:23;;;;;;;23.52;14.20;;;10.90;99.90;;;;;;4932229;28;20133;-77
2022/06/05 02:52:58;;;;;;;23.25;14.40;;;10.90;99.90;;;;;;4985749;28;20033;-77
2022/06/05 02:55:24;;;;;;;27.77;14.98;;;10.90;99.90;;;;;;4969849;28;20042;-77
2022/06/05 02:57:50;;;;;;;26.00;15.15;;;10.90;99.90;;;;;;4987925;28;20133;-77
2022/06/05 03:00:19;;;;;;;22.70;14.43;;;10.90;99.90;;;;;;4968515;28;20120;-77
2022/06/05 03:05:30;;;;;;;28.15;15.27;;;10.80;99.90;;;;;;4988225;28;20535;-77
2022/06/05 03:07:56;;;;;;;22.83;14.02;;;10.80;99.90;;;;;;4988241;28;20080;-77
2022/06/05 03:10:22;;;;;;;25.20;14.80;;;10.90;99.90;;;;;;4956060;28;20472;-78
2022/06/05 03:12:48;;;;;;;27.00;15.55;;;10.90;99.90;;;;;;4970912;28;20502;-77
2022/06/05 03:15:15;;;;;;;22.50;13.77;;;10.90;99.90;;;;;;4954491;28;20037;-77
2022/06/05 03:17:44;;;;;;;29.38;14.60;;;10.80;99.90;;;;;;4993284;28;20041;-77
2022/06/05 03:20:12;;;;;;;28.15;15.25;;;10.80;99.90;;;;;;4954088;28;20037;-77
2022/06/05 03:22:38;;;;;;;27.02;15.85;;;10.80;99.90;;;;;;4966636;28;20041;-77
2022/06/05 03:25:05;;;;;;;25.80;15.55;;;10.80;99.90;;;;;;4971477;28;20513;-77
2022/06/05 03:27:31;;;;;;;26.83;15.15;;;10.80;99.90;;;;;;4986748;28;20125;-77
2022/06/05 03:29:58;;;;;;;26.17;15.00;;;10.80;99.90;;;;;;4954496;28;20038;-77
2022/06/05 03:32:25;;;;;;;28.40;14.75;;;10.80;99.90;;;;;;4970615;28;20045;-77
2022/06/05 03:34:51;;;;;;;28.42;15.73;;;10.90;99.90;;;;;;4956101;28;20116;-77
2022/06/05 03:37:17;;;;;;;24.33;14.95;;;10.80;99.90;;;;;;4970525;28;20855;-77
2022/06/05 03:39:43;;;;;;;28.48;16.42;;;10.90;99.90;;;;;;4957736;28;20133;-77
2022/06/05 03:42:09;;;;;;;26.42;14.43;;;10.90;99.90;;;;;;4940528;28;20052;-77
2022/06/05 03:44:36;;;;;;;27.25;15.18;;;10.90;99.90;;;;;;4965129;28;20484;-77
2022/06/05 03:47:02;;;;;;;28.92;15.85;;;11.00;99.90;;;;;;4974103;28;20034;-77
2022/06/05 03:49:28;;;;;;;24.50;13.77;;;11.00;99.90;;;;;;4988333;28;20435;-77
2022/06/05 03:51:54;;;;;;;23.52;14.23;;;11.00;99.90;;;;;;4960235;28;20049;-77
2022/06/05 03:54:19;;;;;;;24.45;15.88;;;11.00;99.90;;;;;;4957516;28;20060;-77
2022/06/05 03:56:45;;;;;;;28.13;15.98;;;11.00;99.90;;;;;;4957590;28;20034;-77
2022/06/05 03:59:11;;;;;;;25.60;15.48;;;11.00;99.90;;;;;;4956780;28;20053;-77
2022/06/05 04:01:37;;;;;;;26.85;15.57;;;11.00;99.90;;;;;;4973776;28;20073;-77
2022/06/05 04:04:03;;;;;;;22.73;15.20;;;11.00;99.90;;;;;;4990996;28;20479;-77
2022/06/05 04:06:31;;;;;;;25.48;15.40;;;11.10;99.90;;;;;;4958422;28;20037;-77
2022/06/05 04:08:59;;;;;;;29.02;15.18;;;11.10;99.90;;;;;;4971733;28;20592;-77
2022/06/05 04:11:27;;;;;;;27.05;15.85;;;11.10;99.90;;;;;;4975419;28;20041;-77
2022/06/05 04:13:53;;;;;;;24.50;15.15;;;11.10;99.90;;;;;;4987295;28;20050;-77
2022/06/05 04:16:24;;;;;;;26.92;16.15;;;11.20;99.90;;;;;;4957870;28;20125;-77
2022/06/05 04:18:50;;;;;;;33.10;16.35;;;11.20;99.90;;;;;;4989691;28;20119;-77
2022/06/05 04:21:19;;;;;;;25.73;14.55;;;11.20;99.90;;;;;;4960527;28;20056;-77
2022/06/05 04:23:46;;;;;;;30.38;15.35;;;11.20;99.90;;;;;;4974072;28;20073;-77
2022/06/05 04:26:15;;;;;;;31.27;16.27;;;11.20;99.90;;;;;;4973171;28;20081;-77
2022/06/05 04:28:41;;;;;;;27.50;16.05;;;11.30;99.90;;;;;;5006333;28;20415;-77
2022/06/05 04:31:32;;;;;;;25.27;15.80;;;11.30;99.90;;;;;;4956429;28;20144;-77
2022/06/05 04:34:01;;;;;;;27.85;15.57;;;11.30;99.90;;;;;;4988352;28;20030;-76
2022/06/05 04:36:27;;;;;;;29.08;16.33;;;11.40;99.90;;;;;;4972480;28;20042;-76
2022/06/05 04:38:53;;;;;;;28.70;15.63;;;11.40;99.90;;;;;;4958652;28;20487;-76
2022/06/05 04:41:20;;;;;;;27.08;15.77;;;11.50;99.90;;;;;;4969697;28;21511;-77
2022/06/05 04:43:47;;;;;;;27.65;17.45;;;11.50;99.90;;;;;;4973943;28;20040;-76
2022/06/05 04:46:13;;;;;;;28.88;15.60;;;11.60;99.90;;;;;;4973391;28;20060;-76
2022/06/05 04:48:39;;;;;;;27.55;16.13;;;11.70;99.90;;;;;;4974625;28;20034;-77
2022/06/05 04:51:07;;;;;;;29.20;16.20;;;11.80;99.90;;;;;;4972554;28;20048;-76
2022/06/05 04:53:33;;;;;;;28.58;16.02;;;11.80;99.90;;;;;;4971496;28;20040;-76
2022/06/05 04:56:06;;;;;;;26.52;15.30;;;11.90;99.90;;;;;;4970627;28;20125;-77
2022/06/05 04:58:32;;;;;;;26.35;16.08;;;12.00;99.90;;;;;;4986965;28;20434;-76
2022/06/05 05:00:58;;;;;;;29.58;15.82;;;12.10;99.90;;;;;;4971294;28;20491;-76
2022/06/05 05:03:24;;;;;;;27.25;16.13;;;12.20;99.90;;;;;;4988551;28;20092;-76
2022/06/05 05:05:50;;;;;;;25.00;15.68;;;12.30;99.90;;;;;;4972168;28;20038;-76
2022/06/05 05:08:16;;;;;;;21.05;14.70;;;12.40;99.90;;;;;;4955335;28;20042;-77
2022/06/05 05:10:42;;;;;;;22.38;15.43;;;12.50;99.90;;;;;;4973106;28;20471;-76
2022/06/05 05:13:08;;;;;;;22.45;14.02;;;12.60;99.90;;;;;;4990611;28;20530;-76
2022/06/05 05:15:34;;;;;;;26.50;15.48;;;12.70;99.90;;;;;;4973272;28;20120;-76
2022/06/05 05:18:00;;;;;;;24.92;15.32;;;12.80;99.90;;;;;;4973070;28;20065;-77
2022/06/05 05:20:26;;;;;;;20.83;13.80;;;12.90;99.90;;;;;;4971330;28;20521;-77
2022/06/05 05:22:55;;;;;;;22.65;15.10;;;13.00;99.90;;;;;;4958114;28;20038;-77
2022/06/05 05:25:21;;;;;;;25.27;14.80;;;13.10;99.90;;;;;;4972445;28;20042;-77
2022/06/05 05:27:47;;;;;;;23.63;14.02;;;13.20;99.90;;;;;;4989447;28;20283;-77
2022/06/05 05:30:13;;;;;;;23.20;13.70;;;13.30;99.90;;;;;;4989893;28;20057;-77
2022/06/05 05:32:39;;;;;;;17.83;12.70;;;13.40;99.90;;;;;;4973025;28;20041;-76
2022/06/05 05:35:09;;;;;;;23.00;14.57;;;13.40;99.90;;;;;;4957449;28;20563;-76
2022/06/05 05:37:34;;;;;;;18.70;12.95;;;13.50;99.90;;;;;;4971999;28;20046;-77
2022/06/05 05:42:46;;;;;;;21.50;14.52;;;13.70;99.90;;;;;;4987606;28;20046;-76
2022/06/05 05:45:11;;;;;;;19.33;12.32;;;13.70;99.90;;;;;;4958096;28;20380;-76
2022/06/05 05:47:37;;;;;;;20.20;12.75;;;13.80;99.90;;;;;;4972481;28;20444;-77
2022/06/05 05:50:08;;;;;;;22.38;14.38;;;13.90;99.90;;;;;;4987980;28;20038;-77
2022/06/05 05:52:34;;;;;;;16.77;12.45;;;13.90;99.90;;;;;;4987396;28;20127;-77
2022/06/05 05:55:01;;;;;;;18.35;13.38;;;14.00;99.90;;;;;;4974268;28;20073;-77
2022/06/05 05:57:27;;;;;;;22.00;13.75;;;14.00;99.90;;;;;;4972795;28;20120;-77
2022/06/05 05:59:53;;;;;;;22.67;13.05;;;14.10;99.90;;;;;;4958403;28;20041;-77
2022/06/05 06:02:25;;;;;;;20.60;14.38;;;14.20;99.90;;;;;;4984833;28;20482;-76
2022/06/05 06:04:52;;;;;;;20.08;12.82;;;14.20;99.90;;;;;;4990131;28;20052;-77
2022/06/05 06:07:19;;;;;;;20.55;13.40;;;14.30;99.90;;;;;;4972241;28;20481;-77
2022/06/05 06:09:45;;;;;;;18.85;13.38;;;14.40;99.90;;;;;;4972544;28;20060;-77
2022/06/05 06:12:12;;;;;;;18.02;12.63;;;14.40;99.90;;;;;;4986567;28;20171;-76
2022/06/05 06:14:38;;;;;;;16.23;12.07;;;14.50;99.90;;;;;;4987289;28;20034;-76
2022/06/05 06:17:04;;;;;;;18.33;13.00;;;14.60;99.90;;;;;;4971066;28;20399;-77
2022/06/05 06:19:31;;;;;;;18.90;12.13;;;14.60;99.90;;;;;;4955794;28;20033;-76
2022/06/05 06:21:56;;;;;;;17.50;11.65;;;14.70;99.90;;;;;;4972682;28;20038;-76
2022/06/05 06:24:22;;;;;;;17.23;11.88;;;14.70;99.90;;;;;;4956842;28;20037;-77
2022/06/05 06:26:48;;;;;;;16.25;11.80;;;14.80;99.90;;;;;;4989328;28;20125;-77
2022/06/05 06:29:14;;;;;;;17.88;11.45;;;14.90;99.90;;;;;;4970053;28;20041;-76
2022/06/05 06:31:42;;;;;;;19.30;12.75;;;14.90;99.90;;;;;;4970961;28;20034;-76
2022/06/05 06:34:08;;;;;;;16.75;11.63;;;15.00;99.90;;;;;;4969297;28;20046;-76
2022/06/05 06:36:34;;;;;;;14.80;12.20;;;15.10;99.90;;;;;;4976993;28;20148;-76
2022/06/05 06:39:00;;;;;;;16.63;10.98;;;15.20;99.90;;;;;;4971922;28;20041;-77
2022/06/05 06:41:26;;;;;;;18.95;11.88;;;15.20;99.90;;;;;;4965012;28;20069;-76
2022/06/05 06:43:53;;;;;;;15.70;11.48;;;15.30;99.90;;;;;;4989314;28;20080;-77
2022/06/05 06:46:19;;;;;;;15.90;11.70;;;15.40;99.90;;;;;;4986113;28;20147;-76
2022/06/05 06:48:46;;;;;;;14.02;11.25;;;15.50;99.90;;;;;;4986636;28;20495;-76
2022/06/05 06:51:13;;;;;;;17.65;10.73;;;15.60;99.90;;;;;;4986895;28;20038;-77
2022/06/05 06:53:39;;;;;;;17.25;11.65;;;15.70;99.90;;;;;;4988998;28;20033;-77
2022/06/05 06:56:17;;;;;;;14.63;11.38;;;15.80;99.90;;;;;;4970949;28;20483;-76
2022/06/05 06:58:44;;;;;;;14.02;10.65;;;15.90;99.90;;;;;;4973271;28;20040;-77
2022/06/05 07:01:10;;;;;;;13.57;10.63;;;16.00;99.90;;;;;;4970671;28;20034;-77
2022/06/05 07:03:37;;;;;;;14.13;10.57;;;16.10;99.90;;;;;;4972018;28;20405;-77
2022/06/05 07:06:04;;;;;;;13.80;11.15;;;16.30;99.90;;;;;;4973030;28;20033;-85
2022/06/05 07:08:30;;;;;;;13.68;10.45;;;16.50;99.90;;;;;;4987232;28;20048;-84
2022/06/05 07:10:56;;;;;;;15.80;10.35;;;16.60;99.90;;;;;;4973649;28;20403;-84
2022/06/05 07:13:22;;;;;;;12.75;10.13;;;16.80;99.90;;;;;;4972880;28;20038;-86
2022/06/05 07:15:48;;;;;;;12.52;9.88;;;17.00;99.90;;;;;;4972221;28;20199;-86
2022/06/05 07:18:14;;;;;;;12.90;10.27;;;17.10;99.90;;;;;;4976012;28;20038;-85
2022/06/05 07:20:42;;;;;;;14.68;10.05;;;17.30;99.90;;;;;;4940873;28;20132;-86
2022/06/05 07:23:08;;;;;;;13.30;9.77;;;17.40;99.90;;;;;;4967187;28;20372;-86
2022/06/05 07:25:36;;;;;;;13.68;9.90;;;17.60;99.90;;;;;;4969898;28;20032;-86
2022/06/05 07:28:03;;;;;;;12.15;9.30;;;17.70;99.90;;;;;;4970528;28;20053;-85
2022/06/05 07:30:29;;;;;;;13.38;9.63;;;17.80;99.90;;;;;;4987352;28;20415;-86
2022/06/05 07:32:55;;;;;;;11.48;8.73;;;17.90;99.90;;;;;;4955309;28;20479;-87
2022/06/05 07:35:21;;;;;;;12.18;9.40;;;18.00;99.90;;;;;;4973033;28;20036;-87
2022/06/05 07:37:47;;;;;;;11.60;8.95;;;18.10;99.90;;;;;;4986642;28;20085;-87
2022/06/05 07:40:14;;;;;;;11.60;9.52;;;18.10;99.90;;;;;;4989612;28;20427;-87
2022/06/05 07:42:42;;;;;;;13.52;9.82;;;18.20;99.90;;;;;;4962734;28;20060;-87
2022/06/05 07:45:10;;;;;;;13.73;10.02;;;18.40;99.90;;;;;;4988907;28;20152;-87
2022/06/05 07:47:36;;;;;;;13.50;9.23;;;18.50;99.90;;;;;;4977282;28;20120;-87
2022/06/05 07:50:03;;;;;;;12.38;9.85;;;18.50;99.90;;;;;;4980490;28;20527;-87
2022/06/05 07:55:14;;;;;;;11.65;9.60;;;18.70;99.90;;;;;;4992863;28;20047;-86
2022/06/05 07:57:40;;;;;;;13.73;9.23;;;18.80;99.90;;;;;;4977879;28;20051;-85
2022/06/05 08:00:08;;;;;;;15.32;9.40;;;19.00;99.90;;;;;;4965160;28;20299;-83
2022/06/05 08:02:35;;;;;;;10.57;8.68;;;19.00;99.90;;;;;;4992109;28;20092;-84
2022/06/05 08:05:02;;;;;;;12.65;8.02;;;19.00;99.90;;;;;;4975488;28;20048;-76
2022/06/05 08:07:29;;;;;;;10.75;8.00;;;19.10;99.90;;;;;;4992247;28;20173;-75
2022/06/05 08:09:56;;;;;;;9.70;8.52;;;19.20;99.90;;;;;;4964471;28;20038;-75
2022/06/05 08:12:23;;;;;;;11.90;8.43;;;19.20;99.90;;;;;;4973638;28;20034;-75
2022/06/05 08:14:52;;;;;;;13.15;8.43;;;19.30;99.90;;;;;;4971858;28;20038;-75
2022/06/05 08:17:30;;;;;;;10.15;8.02;;;19.40;99.90;;;;;;4999646;28;20049;-75
2022/06/05 08:19:57;;;;;;;9.20;7.63;;;19.40;99.90;;;;;;4977058;28;20046;-75
2022/06/05 08:22:24;;;;;;;11.93;8.90;;;19.50;99.90;;;;;;4990936;28;20058;-75
2022/06/05 08:24:52;;;;;;;11.55;9.10;;;19.60;99.90;;;;;;4982523;28;20426;-75
2022/06/05 08:27:20;;;;;;;11.57;8.20;;;19.60;99.90;;;;;;4989507;28;20042;-75
2022/06/05 08:29:46;;;;;;;9.68;8.00;;;19.70;99.90;;;;;;4987921;28;20034;-75
2022/06/05 08:32:13;;;;;;;10.25;8.10;;;19.80;99.90;;;;;;4958064;28;20100;-75
2022/06/05 08:34:39;;;;;;;9.60;8.23;;;19.80;99.90;;;;;;4972553;28;20080;-73
2022/06/05 08:42:54;;;;;;;15.20;8.10;;;20.10;99.90;;;;;;4982360;28;20060;-75
2022/06/05 08:45:26;;;;;;;11.00;8.77;;;20.20;99.90;;;;;;4982574;28;20515;-75
2022/06/05 08:47:58;;;;;;;9.10;7.60;;;20.20;99.90;;;;;;4983476;28;20046;-75
2022/06/05 08:50:35;;;;;;;9.45;8.45;;;20.40;99.90;;;;;;4998078;28;20030;-75
2022/06/05 08:53:22;;;;;;;10.95;7.38;;;20.60;99.90;;;;;;4985050;28;20049;-74
2022/06/05 08:55:52;;;;;;;8.88;7.32;;;20.70;99.90;;;;;;4972944;28;20049;-74
2022/06/05 08:58:31;;;;;;;10.20;7.60;;;20.80;99.90;;;;;;4995576;28;20121;-74
2022/06/05 09:01:07;;;;;;;9.25;7.40;;;21.00;99.90;;;;;;4991597;28;20120;-73
2022/06/05 09:03:51;;;;;;;8.82;7.93;;;21.10;99.90;;;;;;4990278;28;20041;-83
2022/06/05 09:06:36;;;;;;;16.00;7.40;;;21.20;99.90;;;;;;4971828;28;20045;-80
2022/06/05 09:09:06;;;;;;;9.90;8.27;;;21.20;99.90;;;;;;4990540;28;20050;-77
2022/06/05 09:11:38;;;;;;;8.20;7.32;;;21.20;99.90;;;;;;4992177;28;20042;-78
2022/06/05 09:14:30;;;;;;;9.35;7.38;;;21.20;99.90;;;;;;4994691;28;20413;-78
2022/06/05 09:17:03;;;;;;;9.23;8.10;;;21.30;99.90;;;;;;4977311;28;20491;-78
2022/06/05 09:19:30;;;;;;;9.68;7.90;;;21.50;99.90;;;;;;4969141;28;20790;-78
2022/06/05 09:22:15;;;;;;;11.77;7.82;;;21.70;99.90;;;;;;4977481;28;20366;-78
2022/06/05 09:24:59;;;;;;;9.80;7.18;;;21.80;99.90;;;;;;4977902;28;20042;-78
2022/06/05 09:28:01;;;;;;;11.00;7.80;;;21.90;99.90;;;;;;4976919;28;20037;-78
2022/06/05 09:30:50;;;;;;;10.48;8.07;;;22.20;99.90;;;;;;4993835;28;20073;-78
2022/06/05 09:33:21;;;;;;;9.07;7.78;;;22.40;99.90;;;;;;4983249;28;20039;-78
2022/06/05 09:35:51;;;;;;;9.57;8.07;;;22.50;99.90;;;;;;4992896;28;20118;-78
2022/06/05 09:38:28;;;;;;;9.90;7.90;;;22.60;99.90;;;;;;4974519;28;20084;-78
2022/06/05 09:41:11;;;;;;;10.55;7.60;;;22.70;99.90;;;;;;5005705;28;20054;-79
2022/06/05 09:44:11;;;;;;;9.18;8.07;;;22.90;99.90;;;;;;4999752;28;20050;-79
2022/06/05 09:46:59;;;;;;;9.52;8.50;;;23.10;99.90;;;;;;5002723;28;20052;-79
2022/06/05 09:49:31;;;;;;;8.18;7.30;;;23.20;99.90;;;;;;4994058;28;20030;-78
2022/06/05 09:52:03;;;;;;;9.50;7.05;;;23.30;99.90;;;;;;4975979;28;20044;-77
2022/06/05 09:54:31;;;;;;;7.95;6.80;;;23.30;99.90;;;;;;4976353;28;20038;-77
2022/06/05 10:00:03;;;;;;;8.70;7.35;;;23.60;99.90;;;;;;4987944;28;20054;-78
2022/06/05 10:02:30;;;;;;;8.43;6.93;;;23.80;99.50;;;;;;4973678;28;20038;-77
2022/06/05 10:04:56;;;;;;;9.80;7.53;;;23.90;98.90;;;;;;4976376;28;20042;-78
2022/06/05 10:07:25;;;;;;;9.27;6.50;;;24.00;98.70;;;;;;4977154;28;20503;-77
2022/06/05 10:09:51;;;;;;;9.40;7.10;;;24.00;98.50;;;;;;4979217;28;20077;-77
2022/06/05 10:12:42;;;;;;;8.43;7.30;;;24.10;98.50;;;;;;4979550;28;20033;-78
2022/06/05 10:15:26;;;;;;;8.40;7.47;;;24.10;97.80;;;;;;4982608;28;20084;-78
2022/06/05 10:18:01;;;;;;;9.90;7.13;;;24.20;97.90;;;;;;4967268;28;20038;-79
2022/06/05 10:20:36;;;;;;;8.90;7.13;;;24.30;98.10;;;;;;4971142;28;20033;-78
2022/06/05 10:23:27;;;;;;;13.90;7.65;;;24.40;97.80;;;;;;4976160;28;20037;-78
2022/06/05 10:26:15;;;;;;;17.58;8.10;;;24.40;97.30;;;;;;5006089;28;20053;-78
2022/06/05 10:28:43;;;;;;;11.80;7.68;;;24.60;97.50;;;;;;4971266;28;20085;-78
2022/06/05 10:31:15;;;;;;;10.50;7.68;;;24.60;97.40;;;;;;4991088;28;20026;-78
2022/06/05 10:34:05;;;;;;;9.07;7.40;;;24.60;97.50;;;;;;4981547;28;20042;-77
2022/06/05 10:36:59;;;;;;;11.07;7.97;;;24.60;96.40;;;;;;4983075;28;20046;-78
2022/06/05 10:40:01;;;;;;;10.25;8.05;;;24.50;96.10;;;;;;4987825;28;20126;-78
2022/06/05 10:42:45;;;;;;;10.00;7.72;;;24.40;96.50;;;;;;5003917;28;20089;-78
2022/06/05 10:45:47;;;;;;;10.90;8.13;;;24.30;96.50;;;;;;4976902;28;20410;-78
2022/06/05 10:48:25;;;;;;;12.18;8.60;;;24.30;95.90;;;;;;4968576;28;20054;-80
2022/06/05 10:51:32;;;;;;;12.15;8.48;;;24.40;96.60;;;;;;4998268;28;20046;-80
2022/06/05 10:54:29;;;;;;;12.25;8.48;;;24.50;96.50;;;;;;4947857;28;20058;-79
2022/06/05 10:57:01;;;;;;;9.43;8.45;;;24.50;95.90;;;;;;4969605;28;20395;-80
2022/06/05 11:00:04;;;;;;;9.38;7.70;;;24.60;96.60;;;;;;4962009;28;20034;-82
2022/06/05 11:03:00;;;;;;;12.77;8.25;;;24.60;96.20;;;;;;4967978;28;20129;-85
2022/06/05 11:05:38;;;;;;;11.27;7.63;;;24.60;95.30;;;;;;4973159;28;20150;-82
2022/06/05 11:08:09;;;;;;;9.13;7.32;;;24.50;95.60;;;;;;4970418;28;20547;-80
2022/06/05 11:14:07;;;;;;;8.65;7.85;;;24.30;95.70;;;;;;4997139;28;20039;-80
2022/06/05 11:16:38;;;;;;;;;;;24.30;96.20;;;;;;4967162;28;20046;-81
2022/06/05 11:19:24;;;;;;;8.85;8.00;;;24.20;96.00;;;;;;4962055;28;20272;-82
2022/06/05 11:21:51;;;;;;;9.27;8.05;;;24.20;96.50;;;;;;4981260;28;20428;-81
2022/06/05 11:24:28;;;;;;;11.10;8.40;;;24.30;96.60;;;;;;4972523;28;20050;-80
2022/06/05 11:27:03;;;;;;;10.20;8.60;;;24.40;96.10;;;;;;4968876;28;20042;-80
2022/06/05 11:29:34;;;;;;;11.00;8.18;;;24.40;96.20;;;;;;4985621;28;20071;-79
2022/06/05 11:32:24;;;;;;;9.88;8.13;;;24.40;95.70;;;;;;4965793;28;20526;-81
2022/06/05 11:35:01;;;;;;;8.68;7.68;;;24.40;95.50;;;;;;4983064;28;20046;-82
2022/06/05 11:37:34;;;;;;;8.82;7.93;;;24.30;96.00;;;;;;4980812;28;20046;-81
2022/06/05 11:40:16;;;;;;;9.65;7.20;;;24.20;95.80;;;;;;4989941;28;20042;-81
2022/06/05 11:43:07;;;;;;;9.40;8.45;;;24.20;95.80;;;;;;4985330;28;20054;-81
2022/06/05 11:46:00;;;;;;;9.48;8.48;;;24.10;95.70;;;;;;4985451;28;20317;-81
2022/06/05 11:48:37;;;;;;;8.38;7.30;;;24.00;95.70;;;;;;4985619;28;20104;-80
2022/06/05 11:51:21;;;;;;;10.00;8.02;;;24.00;95.90;;;;;;4985869;28;20868;-82
2022/06/05 11:54:11;;;;;;;8.88;7.95;;;24.00;96.00;;;;;;4969183;28;20034;-82
2022/06/05 11:57:05;;;;;;;11.25;7.18;;;23.90;95.80;;;;;;4987486;28;20612;-80
2022/06/05 11:59:58;;;;;;;7.95;7.07;;;23.80;95.60;;;;;;4982875;28;20045;-79
2022/06/05 12:02:49;;;;;;;9.30;7.20;;;23.70;95.60;;;;;;4997864;28;20498;-80
2022/06/05 12:05:33;;;;;;;9.45;7.70;;;23.70;96.50;;;;;;4967925;28;20572;-80
2022/06/05 12:08:08;;;;;;;8.27;7.45;;;23.70;95.90;;;;;;4971691;28;20041;-80
2022/06/05 12:10:38;;;;;;;8.45;7.47;;;23.60;96.30;;;;;;4991824;28;20443;-81
2022/06/05 12:13:30;;;;;;;10.05;6.95;;;23.50;96.10;;;;;;4990057;28;20380;-80
2022/06/05 12:16:14;;;;;;;7.72;6.72;;;23.40;95.90;;;;;;4972887;28;20128;-81
2022/06/05 12:18:53;;;;;;;9.50;7.03;;;23.40;96.30;;;;;;4982696;28;20526;-80
2022/06/05 12:21:32;;;;;;;9.10;6.93;;;23.40;96.30;;;;;;4976447;28;20053;-80
2022/06/05 12:24:16;;;;;;;10.90;7.82;;;23.40;96.50;;;;;;4974387;28;20496;-80
2022/06/05 12:26:48;;;;;;;14.77;7.95;;;23.40;96.70;;;;;;4978833;28;20045;-80
2022/06/05 12:29:31;;;;;;;11.55;7.47;;;23.40;96.90;;;;;;4990655;28;20045;-80
2022/06/05 12:32:06;;;;;;;8.48;7.63;;;23.40;96.80;;;;;;5000513;28;20500;-80
2022/06/05 12:34:51;;;;;;;9.68;7.25;;;23.40;97.00;;;;;;4971310;28;20061;-81
2022/06/05 12:37:27;;;;;;;8.15;6.97;;;23.50;96.90;;;;;;4978326;28;20043;-80
2022/06/05 12:39:55;;;;;;;9.90;7.55;;;23.50;97.10;;;;;;4973565;28;20065;-80
2022/06/05 12:42:27;;;;;;;8.00;6.90;;;23.50;97.40;;;;;;4962299;28;20057;-80
2022/06/05 12:45:03;;;;;;;8.48;7.43;;;23.60;97.60;;;;;;4981471;28;20050;-81
2022/06/05 12:48:05;;;;;;;8.85;6.95;;;23.60;97.30;;;;;;4980068;28;20046;-80
2022/06/05 12:50:46;;;;;;;8.18;6.32;;;23.70;97.10;;;;;;4984229;28;20046;-80
2022/06/05 12:53:41;;;;;;;10.23;6.63;;;23.70;97.20;;;;;;4979457;28;20049;-80
2022/06/05 12:56:20;;;;;;;7.13;6.53;;;23.80;96.70;;;;;;4978727;28;20516;-82
2022/06/05 12:59:05;;;;;;;8.00;6.10;;;23.80;96.80;;;;;;4985539;28;20460;-77
2022/06/05 13:01:58;;;;;;;8.10;6.57;;;23.90;96.00;;;;;;4977267;28;20569;-76
2022/06/05 13:04:35;;;;;;;;;;;23.80;96.70;;;;;;4957924;28;20080;-76
2022/06/05 13:07:34;;;;;;;7.20;6.50;;;23.90;96.60;;;;;;4981421;28;20027;-76
2022/06/05 13:10:14;;;;;;;7.13;6.10;;;23.80;95.70;;;;;;4942634;28;20132;-76
2022/06/05 13:12:46;;;;;;;7.65;6.43;;;23.80;95.90;;;;;;4983050;28;20041;-76
2022/06/05 13:15:14;;;;;;;;;;;23.80;96.10;;;;;;4989623;28;20030;-75
2022/06/05 13:17:47;;;;;;;6.82;6.10;;;23.70;96.10;;;;;;4986958;28;19918;-76
2022/06/05 13:20:28;;;;;;;9.38;6.30;;;23.60;95.50;;;;;;4976015;28;20042;-76
2022/06/05 13:22:59;;;;;;;6.75;6.15;;;23.70;95.70;;;;;;4982044;28;20037;-77
2022/06/05 13:26:03;;;;;;;6.85;6.15;;;23.60;96.00;;;;;;4981641;28;20045;-75
2022/06/05 13:28:58;;;;;;;6.90;6.18;;;23.50;95.90;;;;;;4962816;28;20038;-76
2022/06/05 13:31:42;;;;;;;6.50;5.80;;;23.50;96.40;;;;;;4977925;28;20046;-76